Time;durP1;ratioP1;P1;durP2;ratioP2;P2;SDS_P1;SDS_P2;PMS_P1;PMS_P2;Temp;Humidity;BMP_temperature;BMP_pressure;BME280_temperature;BME280_humidity;BME280_pressure;Samples;Min_cycle;Max_cycle;Signal;HPM_P1;HPM_P2
2022/10/02 00:01:41;;;;;;;;;;;13.00;86.60;;;;;;4987456;28;19914;-77
2022/10/02 00:04:10;;;;;;;;;;;12.90;86.80;;;;;;4970619;28;20009;-77
2022/10/02 00:06:42;;;;;;;;;;;12.90;86.90;;;;;;4979970;28;19910;-77
2022/10/02 00:09:13;;;;;;;;;;;12.90;87.30;;;;;;4990297;28;19925;-77
2022/10/02 00:11:43;;;;;;;;;;;12.90;87.00;;;;;;4995515;28;20005;-78
2022/10/02 00:14:11;;;;;;;;;;;12.80;87.40;;;;;;4996735;28;19925;-78
2022/10/02 00:16:40;;;;;;;;;;;12.90;87.40;;;;;;4992961;28;20102;-77
2022/10/02 00:19:05;;;;;;;;;;;12.90;87.50;;;;;;4994470;28;19910;-78
2022/10/02 00:21:35;;;;;;;;;;;12.90;87.50;;;;;;4994710;28;20020;-78
2022/10/02 00:24:02;;;;;;;;;;;12.90;87.60;;;;;;4995338;28;19914;-78
2022/10/02 00:26:37;;;;;;;;;;;13.00;87.90;;;;;;4993344;28;19910;-77
2022/10/02 00:29:09;;;;;;;;;;;13.00;87.80;;;;;;4994593;28;19961;-78
2022/10/02 00:31:52;;;;;;;;;;;12.90;88.00;;;;;;5005625;28;20361;-77
2022/10/02 00:34:28;;;;;;;;;;;12.90;88.10;;;;;;4983083;28;19914;-78
2022/10/02 00:36:53;;;;;;;;;;;13.00;88.40;;;;;;5008179;28;19914;-78
2022/10/02 00:39:28;;;;;;;;;;;12.90;88.20;;;;;;4992582;28;19915;-78
2022/10/02 00:42:11;;;;;;;;;;;13.00;88.50;;;;;;4979729;28;19942;-78
2022/10/02 00:44:56;;;;;;;;;;;13.00;88.20;;;;;;4986531;28;20306;-77
2022/10/02 00:47:24;;;;;;;;;;;13.00;88.60;;;;;;4993748;28;20024;-78
2022/10/02 00:49:56;;;;;;;;;;;12.90;88.40;;;;;;4982686;28;19917;-77
2022/10/02 00:52:36;;;;;;;;;;;13.00;88.50;;;;;;4976874;28;19914;-78
2022/10/02 00:55:20;;;;;;;;;;;13.00;88.80;;;;;;4992118;28;20305;-78
2022/10/02 00:57:52;;;;;;;;;;;13.00;88.80;;;;;;4992330;28;19910;-78
2022/10/02 01:00:18;;;;;;;;;;;13.10;88.80;;;;;;4993649;28;20004;-77
2022/10/02 01:02:43;;;;;;;;;;;13.10;88.50;;;;;;5006961;28;19921;-78
2022/10/02 01:05:09;;;;;;;;;;;13.20;88.40;;;;;;4990086;28;20353;-78
2022/10/02 01:07:40;;;;;;;;;;;13.10;88.60;;;;;;5001166;28;20016;-78
2022/10/02 01:10:06;;;;;;;;;;;13.10;88.80;;;;;;4978452;28;19966;-78
2022/10/02 01:12:31;;;;;;;;;;;13.10;88.90;;;;;;4978529;28;20185;-78
2022/10/02 01:14:56;;;;;;;;;;;13.10;89.00;;;;;;4981662;28;20341;-78
2022/10/02 01:17:22;;;;;;;;;;;13.10;89.10;;;;;;4995665;28;19984;-78
2022/10/02 01:19:48;;;;;;;;;;;13.10;89.00;;;;;;4993378;28;19925;-78
2022/10/02 01:22:19;;;;;;;;;;;13.10;89.10;;;;;;5002327;28;19942;-79
2022/10/02 01:24:48;;;;;;;;;;;13.00;89.40;;;;;;4976447;28;20016;-78
2022/10/02 01:27:14;;;;;;;;;;;13.10;89.50;;;;;;4980264;28;19909;-78
2022/10/02 01:29:40;;;;;;;;;;;13.20;89.40;;;;;;4995399;28;19917;-78
2022/10/02 01:32:05;;;;;;;;;;;13.20;89.30;;;;;;5010882;28;19996;-78
2022/10/02 01:34:32;;;;;;;;;;;13.30;89.30;;;;;;4989948;28;19945;-77
2022/10/02 01:36:58;;;;;;;;;;;13.30;89.30;;;;;;4988655;28;19931;-78
2022/10/02 01:39:25;;;;;;;;;;;13.30;89.20;;;;;;4983659;28;19999;-79
2022/10/02 01:41:50;;;;;;;;;;;13.40;89.10;;;;;;4976609;28;20010;-78
2022/10/02 01:44:16;;;;;;;;;;;13.40;89.10;;;;;;4976737;28;20378;-78
2022/10/02 01:46:42;;;;;;;;;;;13.50;89.50;;;;;;4976265;28;19914;-78
2022/10/02 01:49:31;;;;;;;;;;;13.50;89.10;;;;;;4986804;28;19914;-78
2022/10/02 01:52:02;;;;;;;;;;;13.50;89.20;;;;;;4982063;28;19936;-79
2022/10/02 01:54:35;;;;;;;;;;;13.60;88.90;;;;;;4991887;28;20297;-79
2022/10/02 01:57:03;;;;;;;;;;;13.60;89.00;;;;;;4996198;28;20269;-78
2022/10/02 01:59:46;;;;;;;;;;;13.60;89.10;;;;;;4995325;28;19910;-78
2022/10/02 02:02:24;;;;;;;;;;;13.60;89.00;;;;;;4996429;28;19920;-77
2022/10/02 02:04:56;;;;;;;;;;;13.60;88.80;;;;;;4993865;28;20289;-78
2022/10/02 02:07:34;;;;;;;;;;;13.60;89.10;;;;;;4995372;28;19949;-78
2022/10/02 02:09:59;;;;;;;;;;;13.60;89.10;;;;;;4993163;28;19913;-78
2022/10/02 02:12:33;;;;;;;;;;;13.50;89.30;;;;;;4978289;28;19917;-78
2022/10/02 02:15:03;;;;;;;;;;;13.50;89.50;;;;;;4992780;28;20320;-78
2022/10/02 02:17:54;;;;;;;;;;;13.60;89.40;;;;;;5010848;28;20281;-78
2022/10/02 02:20:40;;;;;;;;;;;13.60;89.30;;;;;;4990893;28;19913;-77
2022/10/02 02:23:10;;;;;;;;;;;13.60;89.20;;;;;;4996077;28;19914;-79
2022/10/02 02:25:42;;;;;;;;;;;13.60;89.50;;;;;;4993602;28;19918;-78
2022/10/02 02:28:11;;;;;;;;;;;13.70;89.30;;;;;;4980880;28;19917;-78
2022/10/02 02:30:39;;;;;;;;;;;13.60;89.20;;;;;;4976145;28;20341;-78
2022/10/02 02:33:06;;;;;;;;;;;13.60;89.30;;;;;;4975613;28;19911;-79
2022/10/02 02:35:34;;;;;;;;;;;13.80;89.10;;;;;;4977243;28;19915;-79
2022/10/02 02:38:05;;;;;;;;;;;13.70;89.20;;;;;;4979443;28;19985;-79
2022/10/02 02:40:32;;;;;;;;;;;13.80;89.10;;;;;;5010781;28;19929;-78
2022/10/02 02:43:07;;;;;;;;;;;13.80;88.90;;;;;;4991995;28;19976;-81
2022/10/02 02:45:38;;;;;;;;;;;13.90;88.80;;;;;;4988122;28;19910;-79
2022/10/02 02:48:09;;;;;;;;;;;13.90;88.80;;;;;;4992305;28;20004;-78
2022/10/02 02:50:42;;;;;;;;;;;13.80;89.00;;;;;;5013006;28;19960;-79
2022/10/02 02:53:11;;;;;;;;;;;13.90;89.00;;;;;;5014408;28;19910;-78
2022/10/02 02:55:41;;;;;;;;;;;13.80;88.90;;;;;;4996299;28;20040;-79
2022/10/02 02:58:11;;;;;;;;;;;13.90;89.00;;;;;;4984278;28;19910;-79
2022/10/02 03:00:37;;;;;;;;;;;13.90;89.00;;;;;;4991196;28;19922;-79
2022/10/02 03:03:03;;;;;;;;;;;13.90;89.00;;;;;;4999343;28;19944;-79
2022/10/02 03:05:29;;;;;;;;;;;13.90;89.00;;;;;;4998978;28;19997;-79
2022/10/02 03:08:05;;;;;;;;;;;14.00;88.90;;;;;;4998985;28;19910;-79
2022/10/02 03:10:30;;;;;;;;;;;13.90;88.90;;;;;;4997354;28;19920;-78
2022/10/02 03:13:01;;;;;;;;;;;14.00;89.20;;;;;;4999384;28;19909;-78
2022/10/02 03:15:28;;;;;;;;;;;14.00;88.90;;;;;;4994329;28;19910;-78
2022/10/02 03:18:09;;;;;;;;;;;14.00;89.00;;;;;;4999792;28;19917;-78
2022/10/02 03:20:50;;;;;;;;;;;14.00;88.80;;;;;;4994714;28;19977;-79
2022/10/02 03:23:26;;;;;;;;;;;14.00;89.00;;;;;;4978705;28;19914;-77
2022/10/02 03:25:58;;;;;;;;;;;13.80;89.10;;;;;;4979616;28;19937;-79
2022/10/02 03:28:47;;;;;;;;;;;13.80;89.30;;;;;;4989994;28;20281;-79
2022/10/02 03:31:13;;;;;;;;;;;13.80;89.30;;;;;;4988810;28;19917;-79
2022/10/02 03:33:39;;;;;;;;;;;13.60;89.50;;;;;;4997801;28;19918;-79
2022/10/02 03:36:05;;;;;;;;;;;13.70;89.80;;;;;;4999402;28;19953;-78
2022/10/02 03:38:31;;;;;;;;;;;13.60;89.70;;;;;;4998618;28;19914;-78
2022/10/02 03:40:57;;;;;;;;;;;13.60;90.00;;;;;;4998619;28;19998;-78
2022/10/02 03:43:24;;;;;;;;;;;13.60;90.00;;;;;;4997420;28;19914;-78
2022/10/02 03:45:49;;;;;;;;;;;13.60;90.10;;;;;;4997693;28;19916;-79
2022/10/02 03:48:15;;;;;;;;;;;13.60;90.00;;;;;;5012676;28;19972;-77
2022/10/02 03:50:41;;;;;;;;;;;13.70;89.80;;;;;;4998825;28;19909;-79
2022/10/02 03:53:13;;;;;;;;;;;13.70;89.90;;;;;;4998514;28;19910;-78
2022/10/02 03:55:42;;;;;;;;;;;13.70;90.00;;;;;;5017747;28;20053;-79
2022/10/02 03:58:10;;;;;;;;;;;13.70;89.90;;;;;;5003409;28;19949;-78
2022/10/02 04:00:37;;;;;;;;;;;13.80;89.90;;;;;;5006246;28;19961;-77
2022/10/02 04:03:26;;;;;;;;;;;13.80;89.90;;;;;;4984253;28;19914;-78
2022/10/02 04:05:55;;;;;;;;;;;13.90;89.80;;;;;;4978048;28;19914;-78
2022/10/02 04:08:20;;;;;;;;;;;13.90;89.80;;;;;;4977416;28;19910;-78
2022/10/02 04:10:51;;;;;;;;;;;13.90;89.80;;;;;;4984962;28;19917;-78
2022/10/02 04:13:26;;;;;;;;;;;13.90;89.80;;;;;;5012986;28;19944;-78
2022/10/02 04:15:51;;;;;;;;;;;14.00;90.00;;;;;;5005577;28;19922;-78
2022/10/02 04:18:21;;;;;;;;;;;14.00;89.60;;;;;;5044634;22;19930;-83
2022/10/02 04:20:50;;;;;;;;;;;14.10;89.50;;;;;;5012527;28;20415;-83
2022/10/02 04:23:22;;;;;;;;;;;14.00;89.70;;;;;;5006924;28;19914;-83
2022/10/02 04:25:51;;;;;;;;;;;14.00;89.60;;;;;;5013595;28;19910;-83
2022/10/02 04:28:23;;;;;;;;;;;14.10;89.70;;;;;;5013543;28;19928;-84
2022/10/02 04:30:50;;;;;;;;;;;14.00;89.60;;;;;;5015150;28;19964;-83
2022/10/02 04:33:19;;;;;;;;;;;14.00;89.80;;;;;;5013040;28;19918;-83
2022/10/02 04:36:03;;;;;;;;;;;13.90;89.90;;;;;;4994264;28;19910;-83
2022/10/02 04:38:41;;;;;;;;;;;13.90;90.00;;;;;;5012948;28;19963;-84
2022/10/02 04:41:15;;;;;;;;;;;14.00;89.70;;;;;;4995522;28;20368;-83
2022/10/02 04:43:41;;;;;;;;;;;13.90;89.90;;;;;;5000474;28;19921;-83
2022/10/02 04:46:06;;;;;;;;;;;14.00;89.90;;;;;;5004840;28;19909;-83
2022/10/02 04:48:42;;;;;;;;;;;14.00;89.70;;;;;;5013907;28;19916;-83
2022/10/02 04:51:13;;;;;;;;;;;14.00;89.60;;;;;;5013624;28;19971;-83
2022/10/02 04:53:44;;;;;;;;;;;13.90;89.60;;;;;;5014777;28;19963;-83
2022/10/02 04:56:09;;;;;;;;;;;14.00;89.80;;;;;;5013644;28;20024;-83
2022/10/02 04:58:45;;;;;;;;;;;14.00;89.60;;;;;;5002485;28;19985;-83
2022/10/02 05:01:25;;;;;;;;;;;13.90;89.50;;;;;;4993529;28;19980;-83
2022/10/02 05:04:01;;;;;;;;;;;13.90;89.50;;;;;;4994346;28;20364;-83
2022/10/02 05:06:32;;;;;;;;;;;13.90;89.50;;;;;;4994528;28;19953;-83
2022/10/02 05:09:17;;;;;;;;;;;13.90;89.20;;;;;;5010469;28;19920;-84
2022/10/02 05:11:42;;;;;;;;;;;13.90;89.00;;;;;;5005771;28;19954;-83
2022/10/02 05:14:26;;;;;;;;;;;13.80;89.20;;;;;;5018932;28;19981;-83
2022/10/02 05:17:11;;;;;;;;;;;13.90;89.20;;;;;;5024039;28;19910;-84
2022/10/02 05:19:36;;;;;;;;;;;13.90;89.10;;;;;;5014832;28;19924;-84
2022/10/02 05:22:01;;;;;;;;;;;14.00;88.50;;;;;;5014888;28;19910;-83
2022/10/02 05:24:45;;;;;;;;;;;14.00;88.50;;;;;;5013832;28;19996;-83
2022/10/02 05:27:14;;;;;;;;;;;13.90;88.60;;;;;;5015547;28;19913;-83
2022/10/02 05:29:58;;;;;;;;;;;13.90;88.50;;;;;;5010682;28;20000;-83
2022/10/02 05:32:35;;;;;;;;;;;13.90;88.60;;;;;;4993974;28;19918;-83
2022/10/02 05:35:25;;;;;;;;;;;13.90;88.50;;;;;;4993015;28;20012;-83
2022/10/02 05:38:05;;;;;;;;;;;13.90;88.30;;;;;;5012076;28;19917;-83
2022/10/02 05:40:56;;;;;;;;;;;13.80;88.50;;;;;;4993358;28;19918;-83
2022/10/02 05:43:24;;;;;;;;;;;13.70;88.60;;;;;;5016374;28;19940;-83
2022/10/02 05:45:58;;;;;;;;;;;13.80;88.30;;;;;;5037715;28;19925;-82
2022/10/02 05:48:33;;;;;;;;;;;13.80;88.50;;;;;;5014732;28;20288;-83
2022/10/02 05:51:00;;;;;;;;;;;13.80;88.30;;;;;;5003474;28;19984;-83
2022/10/02 05:53:29;;;;;;;;;;;13.80;88.20;;;;;;5001105;28;20005;-83
2022/10/02 05:55:59;;;;;;;;;;;13.70;88.40;;;;;;4991506;28;19910;-83
2022/10/02 05:58:36;;;;;;;;;;;13.70;88.50;;;;;;4991245;28;19909;-83
2022/10/02 06:01:05;;;;;;;;;;;13.70;88.40;;;;;;4996996;28;20409;-83
2022/10/02 06:03:49;;;;;;;;;;;13.80;88.10;;;;;;5009471;28;20012;-83
2022/10/02 06:06:16;;;;;;;;;;;13.80;88.10;;;;;;5006783;28;19910;-83
2022/10/02 06:08:47;;;;;;;;;;;13.80;88.30;;;;;;4999954;28;19914;-83
2022/10/02 06:11:33;;;;;;;;;;;13.80;88.30;;;;;;5002934;28;19910;-83
2022/10/02 06:14:14;;;;;;;;;;;13.90;88.30;;;;;;4991321;28;19914;-83
2022/10/02 06:17:02;;;;;;;;;;;14.00;87.90;;;;;;4991770;28;19987;-83
2022/10/02 06:19:34;;;;;;;;;;;13.90;88.20;;;;;;4996477;28;19979;-83
2022/10/02 06:22:07;;;;;;;;;;;13.90;88.40;;;;;;5005293;28;19913;-82
2022/10/02 06:24:37;;;;;;;;;;;14.00;88.00;;;;;;5014823;28;20438;-83
2022/10/02 06:27:07;;;;;;;;;;;14.00;88.00;;;;;;5010665;28;19913;-83
2022/10/02 06:29:39;;;;;;;;;;;14.00;88.20;;;;;;5002028;28;19913;-83
2022/10/02 06:32:13;;;;;;;;;;;13.90;88.20;;;;;;4997252;28;20457;-83
2022/10/02 06:34:38;;;;;;;;;;;13.90;88.50;;;;;;4996614;28;19985;-83
2022/10/02 06:37:04;;;;;;;;;;;13.90;88.60;;;;;;5011388;28;19953;-83
2022/10/02 06:39:32;;;;;;;;;;;14.00;88.50;;;;;;4996192;28;19971;-82
2022/10/02 06:42:03;;;;;;;;;;;14.00;88.50;;;;;;4995068;28;20265;-83
2022/10/02 06:44:41;;;;;;;;;;;14.00;88.40;;;;;;5000952;28;19914;-83
2022/10/02 06:47:09;;;;;;;;;;;14.10;88.40;;;;;;5007958;28;20221;-83
2022/10/02 06:49:56;;;;;;;;;;;14.10;88.20;;;;;;5000559;28;19953;-83
2022/10/02 06:52:31;;;;;;;;;;;14.20;88.20;;;;;;5016611;28;19917;-83
2022/10/02 06:55:35;;;;;;;;;;;14.30;88.00;;;;;;5022343;28;19910;-83
2022/10/02 06:58:10;;;;;;;;;;;14.30;87.80;;;;;;4996546;28;19956;-85
2022/10/02 07:00:44;;;;;;;;;;;14.40;87.80;;;;;;4987252;28;19968;-84
2022/10/02 07:03:17;;;;;;;;;;;14.50;87.70;;;;;;4989687;28;19909;-84
2022/10/02 07:05:52;;;;;;;;;;;14.40;87.60;;;;;;5013315;28;19917;-83
2022/10/02 07:08:28;;;;;;;;;;;14.40;87.80;;;;;;4999636;28;19918;-84
2022/10/02 07:11:08;;;;;;;;;;;14.50;87.90;;;;;;4996515;28;19960;-83
2022/10/02 07:13:34;;;;;;;;;;;14.50;87.90;;;;;;5001950;28;19925;-84
2022/10/02 07:16:05;;;;;;;;;;;14.50;87.80;;;;;;5010422;28;19910;-84
2022/10/02 07:18:49;;;;;;;;;;;14.50;87.80;;;;;;4997405;28;19972;-84
2022/10/02 07:21:37;;;;;;;;;;;14.30;88.20;;;;;;5011475;28;19928;-84
2022/10/02 07:24:19;;;;;;;;;;;14.30;88.30;;;;;;5003259;28;19959;-83
2022/10/02 07:26:53;;;;;;;;;;;14.30;88.50;;;;;;5015357;28;20532;-83
2022/10/02 07:29:31;;;;;;;;;;;14.40;88.80;;;;;;5014942;28;19941;-84
2022/10/02 07:31:56;;;;;;;;;;;14.40;88.80;;;;;;4997506;28;20021;-84
2022/10/02 07:34:45;;;;;;;;;;;14.50;88.40;;;;;;5007428;28;19992;-83
2022/10/02 07:37:20;;;;;;;;;;;14.60;88.00;;;;;;5009204;28;20021;-84
2022/10/02 07:39:54;;;;;;;;;;;14.50;88.30;;;;;;5005180;28;20428;-83
2022/10/02 07:42:42;;;;;;;;;;;14.50;88.30;;;;;;5016078;28;19913;-83
2022/10/02 07:45:37;;;;;;;;;;;14.60;88.30;;;;;;5015011;28;20000;-84
2022/10/02 07:48:19;;;;;;;;;;;14.60;88.20;;;;;;4979631;28;19961;-83
2022/10/02 07:50:45;;;;;;;;;;;14.70;87.90;;;;;;5005013;28;19913;-83
2022/10/02 07:53:11;;;;;;;;;;;14.80;87.80;;;;;;5009598;28;19914;-83
2022/10/02 07:55:40;;;;;;;;;;;14.60;87.90;;;;;;5013197;28;20260;-83
2022/10/02 07:58:28;;;;;;;;;;;14.80;88.10;;;;;;5030365;28;19949;-84
2022/10/02 08:00:58;;;;;;;;;;;14.80;87.80;;;;;;5014224;28;19924;-84
2022/10/02 08:03:26;;;;;;;;;;;14.80;87.40;;;;;;5015293;28;19932;-84
2022/10/02 08:05:53;;;;;;;;;;;14.70;88.00;;;;;;5008536;28;19968;-83
2022/10/02 08:08:30;;;;;;;;;;;14.80;87.80;;;;;;5027268;28;19917;-83
2022/10/02 08:11:00;;;;;;;;;;;14.90;87.80;;;;;;5001775;28;20311;-83
2022/10/02 08:13:30;;;;;;;;;;;15.00;87.60;;;;;;5009754;28;19932;-83
2022/10/02 08:15:55;;;;;;;;;;;15.00;87.80;;;;;;5011809;28;19922;-84
2022/10/02 08:18:21;;;;;;;;;;;15.00;87.70;;;;;;5003581;28;19918;-83
2022/10/02 08:20:47;;;;;;;;;;;15.00;87.80;;;;;;4997250;28;19963;-84
2022/10/02 08:23:32;;;;;;;;;;;15.10;87.60;;;;;;5002448;28;19917;-83
2022/10/02 08:25:58;;;;;;;;;;;15.30;87.30;;;;;;5008980;28;20000;-83
2022/10/02 08:28:26;;;;;;;;;;;15.50;86.80;;;;;;5017113;28;19941;-82
2022/10/02 08:30:52;;;;;;;;;;;15.50;86.70;;;;;;5017986;28;19961;-83
2022/10/02 08:33:18;;;;;;;;;;;15.40;86.70;;;;;;5012658;28;19964;-84
2022/10/02 08:35:51;;;;;;;;;;;15.50;86.30;;;;;;5016761;28;19969;-83
2022/10/02 08:38:27;;;;;;;;;;;15.50;86.10;;;;;;5015726;28;20449;-83
2022/10/02 08:41:03;;;;;;;;;;;15.50;86.20;;;;;;5002004;28;20311;-84
2022/10/02 08:43:47;;;;;;;;;;;15.60;86.40;;;;;;4994574;28;20362;-83
2022/10/02 08:46:36;;;;;;;;;;;15.60;86.00;;;;;;4994623;28;19914;-83
2022/10/02 08:49:20;;;;;;;;;;;15.60;86.10;;;;;;5028566;28;19953;-83
2022/10/02 08:52:05;;;;;;;;;;;15.70;85.50;;;;;;5012917;28;19925;-83
2022/10/02 08:54:34;;;;;;;;;;;15.80;84.90;;;;;;5004386;28;19921;-84
2022/10/02 08:57:17;;;;;;;;;;;15.90;84.60;;;;;;5000699;28;19913;-83
2022/10/02 09:00:02;;;;;;;;;;;15.90;84.80;;;;;;5011036;28;19963;-83
2022/10/02 09:02:27;;;;;;;;;;;15.90;84.40;;;;;;5010909;28;19918;-83
2022/10/02 09:05:11;;;;;;;;;;;16.00;84.30;;;;;;5003985;28;19960;-83
2022/10/02 09:08:12;;;;;;;;;;;16.10;83.80;;;;;;5008782;28;19916;-83
2022/10/02 09:10:44;;;;;;;;;;;16.10;84.20;;;;;;4984086;28;19914;-82
2022/10/02 09:13:21;;;;;;;;;;;16.10;84.10;;;;;;4995275;28;20271;-83
2022/10/02 09:15:54;;;;;;;;;;;16.10;83.60;;;;;;5036913;28;19917;-82
2022/10/02 09:18:25;;;;;;;;;;;16.20;82.90;;;;;;5028257;28;20024;-83
2022/10/02 09:21:00;;;;;;;;;;;16.20;83.00;;;;;;5011018;28;20506;-82
2022/10/02 09:23:40;;;;;;;;;;;16.30;82.20;;;;;;5008154;28;19917;-82
2022/10/02 09:26:18;;;;;;;;;;;16.30;81.90;;;;;;4993276;28;20288;-82
2022/10/02 09:28:59;;;;;;;;;;;16.30;81.10;;;;;;4997866;28;20028;-82
2022/10/02 09:31:28;;;;;;;;;;;16.30;81.00;;;;;;5002489;28;20359;-83
2022/10/02 09:34:13;;;;;;;;;;;16.30;80.50;;;;;;4992833;28;19956;-82
2022/10/02 09:36:44;;;;;;;;;;;16.50;80.40;;;;;;4994371;28;19910;-82
2022/10/02 09:39:15;;;;;;;;;;;16.40;79.90;;;;;;5001213;28;20372;-82
2022/10/02 09:41:47;;;;;;;;;;;16.20;80.90;;;;;;5011732;28;19913;-82
2022/10/02 09:44:18;;;;;;;;;;;16.20;80.60;;;;;;5012378;28;19914;-82
2022/10/02 09:47:02;;;;;;;;;;;16.30;80.40;;;;;;5012431;28;19914;-82
2022/10/02 09:49:28;;;;;;;;;;;16.30;81.30;;;;;;5009198;28;19918;-82
2022/10/02 09:52:05;;;;;;;;;;;16.20;82.20;;;;;;5007456;28;19910;-82
2022/10/02 09:54:50;;;;;;;;;;;16.10;82.50;;;;;;5008880;28;19949;-82
2022/10/02 09:57:34;;;;;;;;;;;16.00;83.30;;;;;;4998233;28;19956;-80
2022/10/02 10:00:16;;;;;;;;;;;15.80;84.60;;;;;;5010950;28;20004;-81
2022/10/02 10:02:55;;;;;;;;;;;15.70;85.10;;;;;;5001182;28;19914;-81
2022/10/02 10:05:39;;;;;;;;;;;15.70;85.50;;;;;;5005885;28;19918;-81
2022/10/02 10:08:23;;;;;;;;;;;15.60;86.00;;;;;;5017873;28;19933;-81
2022/10/02 10:11:00;;;;;;;;;;;15.50;86.70;;;;;;4997607;28;19913;-82
2022/10/02 10:13:26;;;;;;;;;;;15.50;87.10;;;;;;5012549;28;20013;-81
2022/10/02 10:15:57;;;;;;;;;;;15.60;86.90;;;;;;5007052;28;19989;-82
2022/10/02 10:18:41;;;;;;;;;;;15.50;86.70;;;;;;5031480;22;20315;-84
2022/10/02 10:21:26;;;;;;;;;;;15.50;87.20;;;;;;5029610;28;19924;-84
2022/10/02 10:24:00;;;;;;;;;;;15.50;87.50;;;;;;5025612;28;19989;-84
2022/10/02 10:26:37;;;;;;;;;;;15.50;87.50;;;;;;5031203;28;19920;-84
2022/10/02 10:29:22;;;;;;;;;;;15.50;87.40;;;;;;5022773;28;20142;-82
2022/10/02 10:31:48;;;;;;;;;;;15.60;87.40;;;;;;5034088;28;19994;-82
2022/10/02 10:34:22;;;;;;;;;;;15.70;86.80;;;;;;5033072;28;19909;-83
2022/10/02 10:40:23;;;;;;;;;;;15.80;86.90;;;;;;5021077;28;20309;-83
2022/10/02 10:42:58;;;;;;;;;;;15.70;87.10;;;;;;5029751;28;19918;-83
2022/10/02 10:45:32;;;;;;;;;;;15.80;86.70;;;;;;5029992;28;20004;-84
2022/10/02 10:48:10;;;;;;;;;;;15.80;86.70;;;;;;5039798;28;20415;-82
2022/10/02 10:50:44;;;;;;;;;;;15.80;86.80;;;;;;5039842;28;19923;-83
2022/10/02 10:53:15;;;;;;;;;;;15.90;86.50;;;;;;5031157;28;19913;-83
2022/10/02 10:55:45;;;;;;;;;;;15.90;85.30;;;;;;5031702;28;19913;-83
2022/10/02 10:58:36;;;;;;;;;;;15.90;84.70;;;;;;5038310;28;19913;-83
2022/10/02 11:01:06;;;;;;;;;;;15.90;84.50;;;;;;5043373;28;19917;-83
2022/10/02 11:03:50;;;;;;;;;;;15.90;83.20;;;;;;5025689;28;20419;-83
2022/10/02 11:06:28;;;;;;;;;;;15.70;83.60;;;;;;5017891;28;19940;-84
2022/10/02 11:09:00;;;;;;;;;;;15.80;84.30;;;;;;5036421;28;19929;-84
2022/10/02 11:11:44;;;;;;;;;;;15.90;84.70;;;;;;5028814;28;19913;-84
2022/10/02 11:14:38;;;;;;;;;;;16.00;83.60;;;;;;5039667;28;19913;-83
2022/10/02 11:17:07;;;;;;;;;;;16.10;83.60;;;;;;5033414;28;19909;-84
2022/10/02 11:19:55;;;;;;;;;;;16.30;82.50;;;;;;5030900;28;19921;-83
2022/10/02 11:22:26;;;;;;;;;;;16.40;82.50;;;;;;5041282;28;19917;-84
2022/10/02 11:25:15;;;;;;;;;;;16.50;80.50;;;;;;5039379;28;19963;-84
2022/10/02 11:27:41;;;;;;;;;;;16.50;79.60;;;;;;5035568;28;19909;-84
2022/10/02 11:30:11;;;;;;;;;;;16.60;77.30;;;;;;5032161;28;20441;-84
2022/10/02 11:32:59;;;;;;;;;;;16.80;75.60;;;;;;5031770;28;19917;-85
2022/10/02 11:35:34;;;;;;;;;;;16.80;75.90;;;;;;5029942;28;19920;-84
2022/10/02 11:38:06;;;;;;;;;;;17.00;74.20;;;;;;5051960;28;20001;-84
2022/10/02 11:40:35;;;;;;;;;;;17.00;74.00;;;;;;5038133;28;20079;-84
2022/10/02 11:43:27;;;;;;;;;;;17.10;74.90;;;;;;5035002;28;20367;-85
2022/10/02 11:46:11;;;;;;;;;;;17.00;73.70;;;;;;5038500;28;20394;-85
2022/10/02 11:48:48;;;;;;;;;;;16.90;73.40;;;;;;5033485;28;20422;-83
2022/10/02 11:51:13;;;;;;;;;;;17.00;72.70;;;;;;5029115;28;19920;-83
2022/10/02 11:53:46;;;;;;;;;;;16.80;74.30;;;;;;5028544;28;19917;-84
2022/10/02 11:56:23;;;;;;;;;;;16.80;73.90;;;;;;5025817;28;19921;-84
2022/10/02 11:58:57;;;;;;;;;;;16.70;75.10;;;;;;5024844;28;19932;-83
2022/10/02 12:01:37;;;;;;;;;;;16.60;75.60;;;;;;5036438;28;19996;-83
2022/10/02 12:04:21;;;;;;;;;;;16.70;75.30;;;;;;5033233;28;20291;-83
2022/10/02 12:06:46;;;;;;;;;;;16.90;71.90;;;;;;5051173;28;19967;-83
2022/10/02 12:09:25;;;;;;;;;;;17.00;72.20;;;;;;5044265;28;19913;-83
2022/10/02 12:11:51;;;;;;;;;;;17.00;73.70;;;;;;5020146;28;19909;-84
2022/10/02 12:14:16;;;;;;;;;;;17.10;73.70;;;;;;5030461;28;19985;-83
2022/10/02 12:17:07;;;;;;;;;;;17.10;73.10;;;;;;5033318;28;19913;-84
2022/10/02 12:19:39;;;;;;;;;;;17.20;73.00;;;;;;5023822;28;19947;-84
2022/10/02 12:27:49;;;;;;;;;;;17.40;70.40;;;;;;5035867;28;19971;-85
2022/10/02 12:30:24;;;;;;;;;;;17.40;70.60;;;;;;5035399;28;19913;-83
2022/10/02 12:32:55;;;;;;;;;;;17.30;71.30;;;;;;5037478;28;19909;-83
2022/10/02 12:35:30;;;;;;;;;;;17.30;70.40;;;;;;5028418;28;19913;-83
2022/10/02 12:38:05;;;;;;;;;;;17.20;71.00;;;;;;5033949;28;19917;-83
2022/10/02 12:40:51;;;;;;;;;;;17.30;69.40;;;;;;5032165;28;20360;-83
2022/10/02 12:43:43;;;;;;;;;;;17.30;69.60;;;;;;5097090;27;20011;-79
2022/10/02 12:46:11;;;;;;;;;;;17.10;70.40;;;;;;5099570;28;19913;-80
2022/10/02 12:48:44;;;;;;;;;;;17.10;71.20;;;;;;5098780;28;19912;-79
2022/10/02 12:51:13;;;;;;;;;;;17.10;69.60;;;;;;5090501;28;19951;-80
2022/10/02 12:53:57;;;;;;;;;;;17.20;70.80;;;;;;5092027;28;19912;-80
2022/10/02 12:56:47;;;;;;;;;;;17.50;68.70;;;;;;5090500;28;19908;-79
2022/10/02 12:59:33;;;;;;;;;;;17.50;69.50;;;;;;5080496;28;19915;-80
2022/10/02 13:02:16;;;;;;;;;;;17.50;68.30;;;;;;5085806;28;19920;-80
2022/10/02 13:04:42;;;;;;;;;;;17.40;69.90;;;;;;5088969;28;20331;-79
2022/10/02 13:07:26;;;;;;;;;;;17.40;69.60;;;;;;5082073;28;19908;-79
2022/10/02 13:09:54;;;;;;;;;;;17.50;67.50;;;;;;5084666;28;19918;-79
2022/10/02 13:12:36;;;;;;;;;;;17.50;67.60;;;;;;5088471;28;20343;-80
2022/10/02 13:15:05;;;;;;;;;;;17.40;66.70;;;;;;5088667;28;20359;-79
2022/10/02 13:17:30;;;;;;;;;;;17.30;66.80;;;;;;5083333;28;19909;-80
2022/10/02 13:20:02;;;;;;;;;;;17.30;67.40;;;;;;5080969;28;19936;-81
2022/10/02 13:22:36;;;;;;;;;;;17.10;68.60;;;;;;5089362;28;19963;-81
2022/10/02 13:25:20;;;;;;;;;;;17.10;69.60;;;;;;5089749;28;19912;-81
2022/10/02 13:28:07;;;;;;;;;;;17.00;69.30;;;;;;5089374;28;19908;-81
2022/10/02 13:30:37;;;;;;;;;;;16.90;69.70;;;;;;5093733;28;19916;-81
2022/10/02 13:33:14;;;;;;;;;;;16.80;69.00;;;;;;5096478;28;19919;-81
2022/10/02 13:35:58;;;;;;;;;;;16.90;68.80;;;;;;5092637;28;19913;-81
2022/10/02 13:38:35;;;;;;;;;;;16.80;69.30;;;;;;5093670;28;19935;-81
2022/10/02 13:41:04;;;;;;;;;;;16.70;70.60;;;;;;5097269;28;19915;-81
2022/10/02 13:43:49;;;;;;;;;;;16.80;68.30;;;;;;5106303;28;19920;-81
2022/10/02 13:46:14;;;;;;;;;;;16.70;69.60;;;;;;5103535;28;19909;-82
2022/10/02 13:48:58;;;;;;;;;;;16.80;68.50;;;;;;5088558;28;19919;-80
2022/10/02 13:51:33;;;;;;;;;;;16.70;71.10;;;;;;5089538;28;19912;-79
2022/10/02 13:54:21;;;;;;;;;;;16.80;69.60;;;;;;5073608;28;20380;-78
2022/10/02 13:56:47;;;;;;;;;;;17.00;68.60;;;;;;5041241;28;19912;-79
2022/10/02 13:59:31;;;;;;;;;;;17.10;66.40;;;;;;5072903;28;19912;-79
2022/10/02 14:02:15;;;;;;;;;;;17.40;64.90;;;;;;5077313;28;19920;-79
2022/10/02 14:04:57;;;;;;;;;;;17.40;64.70;;;;;;5074970;28;20290;-80
2022/10/02 14:07:25;;;;;;;;;;;17.60;63.90;;;;;;5080656;28;19919;-79
2022/10/02 14:10:00;;;;;;;;;;;17.60;65.40;;;;;;5073810;28;19924;-80
2022/10/02 14:12:33;;;;;;;;;;;17.80;64.30;;;;;;5075745;28;20027;-78
2022/10/02 14:15:05;;;;;;;;;;;17.90;64.60;;;;;;5072426;28;19916;-78
2022/10/02 14:17:30;;;;;;;;;;;18.00;61.60;;;;;;5080574;28;20016;-79
2022/10/02 14:19:59;;;;;;;;;;;17.80;61.60;;;;;;5065154;28;20340;-79
2022/10/02 14:22:33;;;;;;;;;;;17.70;61.00;;;;;;5068924;28;20011;-80
2022/10/02 14:25:07;;;;;;;;;;;17.50;63.20;;;;;;5073236;28;20007;-79
2022/10/02 14:27:48;;;;;;;;;;;17.40;63.00;;;;;;5066530;28;19948;-79
2022/10/02 14:30:21;;;;;;;;;;;17.40;61.60;;;;;;5070293;28;19924;-79
2022/10/02 14:32:55;;;;;;;;;;;17.40;64.30;;;;;;5066968;28;19955;-80
2022/10/02 14:35:29;;;;;;;;;;;17.50;64.70;;;;;;5077445;28;19928;-79
2022/10/02 14:38:13;;;;;;;;;;;17.40;65.50;;;;;;5070678;28;19956;-79
2022/10/02 14:40:45;;;;;;;;;;;17.50;67.30;;;;;;5060190;28;20353;-78
2022/10/02 14:43:22;;;;;;;;;;;17.60;67.30;;;;;;5083934;28;19916;-78
2022/10/02 14:45:56;;;;;;;;;;;17.70;65.90;;;;;;5092883;28;19976;-80
2022/10/02 14:48:35;;;;;;;;;;;17.70;66.60;;;;;;5094253;28;19927;-77
2022/10/02 14:51:04;;;;;;;;;;;17.70;66.80;;;;;;5086406;28;20365;-77
2022/10/02 14:53:36;;;;;;;;;;;17.60;68.80;;;;;;5088551;28;19959;-77
2022/10/02 14:56:21;;;;;;;;;;;17.60;67.30;;;;;;5086427;28;20390;-77
2022/10/02 14:58:49;;;;;;;;;;;17.60;66.80;;;;;;5085201;28;19916;-78
2022/10/02 15:01:20;;;;;;;;;;;17.60;66.90;;;;;;5081371;28;20303;-77
2022/10/02 15:03:48;;;;;;;;;;;17.50;67.20;;;;;;5085856;28;19920;-77
2022/10/02 15:06:20;;;;;;;;;;;17.50;67.10;;;;;;5078294;28;20287;-77